Time;durP1;ratioP1;P1;durP2;ratioP2;P2;SDS_P1;SDS_P2;PMS_P1;PMS_P2;Temp;Humidity;BMP_temperature;BMP_pressure;BME280_temperature;BME280_humidity;BME280_pressure;Samples;Min_cycle;Max_cycle;Signal;HPM_P1;HPM_P2
2021/08/02 00:00:32;;;;;;;49.13;43.93;;;15.70;73.60;;;;;;4813398;29;20499;-90
2021/08/02 00:31:01;;;;;;;;;;;;;;;;;;;;;
2021/08/02 00:43:46;;;;;;;364.00;349.87;;;15.30;83.80;;;;;;4902216;29;20877;-91
2021/08/02 00:56:49;;;;;;;431.23;415.87;;;15.40;87.40;;;;;;4881075;29;20462;-89
2021/08/02 01:00:00;;;;;;;;;;;;;;;;;;;;;
2021/08/02 01:06:02;;;;;;;317.30;305.33;;;15.30;85.70;;;;;;4991911;28;20453;-92
2021/08/02 01:11:52;;;;;;;315.20;303.53;;;15.30;86.20;;;;;;4990479;28;20442;-89
2021/08/02 01:18:09;;;;;;;172.53;164.33;;;15.30;85.40;;;;;;4982182;28;20441;-91
2021/08/02 01:21:20;;;;;;;135.87;128.63;;;15.20;84.70;;;;;;4993318;28;20466;-90
2021/08/02 01:24:46;;;;;;;166.10;158.20;;;15.20;83.80;;;;;;4913902;29;20845;-91
2021/08/02 01:27:40;;;;;;;150.60;142.93;;;15.30;84.90;;;;;;4862729;29;20479;-88
2021/08/02 01:30:58;;;;;;;147.90;139.93;;;15.30;85.20;;;;;;4993050;28;20820;-91
2021/08/02 01:34:11;;;;;;;;;;;;;;;;;;;;;
2021/08/02 01:37:29;;;;;;;126.67;118.90;;;15.20;84.40;;;;;;4990324;28;20485;-90
2021/08/02 01:40:13;;;;;;;165.43;156.20;;;15.20;86.20;;;;;;4992971;28;20986;-87
2021/08/02 01:46:30;;;;;;;193.20;183.40;;;15.00;86.70;;;;;;4987240;28;20454;-90
2021/08/02 01:49:14;;;;;;;284.13;272.83;;;14.90;88.10;;;;;;4993084;28;20446;-90
2021/08/02 01:52:21;;;;;;;300.17;288.23;;;14.90;89.10;;;;;;4992521;28;20454;-91
2021/08/02 01:55:24;;;;;;;236.83;226.07;;;14.70;90.20;;;;;;4992818;28;20977;-91
2021/08/02 01:58:05;;;;;;;378.53;365.10;;;14.60;90.90;;;;;;4985954;28;20454;-90
2021/08/02 02:01:02;;;;;;;452.57;437.30;;;14.50;92.60;;;;;;4972742;28;20497;-89
2021/08/02 02:13:13;;;;;;;;;;;;;;;;;;;;;
2021/08/02 02:15:53;;;;;;;605.20;585.33;;;14.20;96.10;;;;;;4966813;28;20977;-91
2021/08/02 02:24:33;;;;;;;690.10;666.70;;;14.50;99.90;;;;;;4975567;28;20447;-90
2021/08/02 02:27:31;;;;;;;666.73;644.43;;;14.50;99.90;;;;;;4921880;28;20489;-89
2021/08/02 03:00:10;;;;;;;413.50;399.20;;;15.00;99.90;;;;;;4896650;29;20991;-91
2021/08/02 03:03:16;;;;;;;408.77;394.70;;;14.90;99.10;;;;;;4934725;29;20471;-90
2021/08/02 03:06:27;;;;;;;449.80;434.20;;;14.90;99.70;;;;;;4935291;28;21012;-91
2021/08/02 03:09:51;;;;;;;;;;;;;;;;;;;;;
2021/08/02 03:12:52;;;;;;;395.17;381.67;;;15.00;99.70;;;;;;4938368;28;20478;-90
2021/08/02 03:15:19;;;;;;;427.03;412.60;;;14.90;99.90;;;;;;4975964;28;20476;-79
2021/08/02 03:17:46;;;;;;;475.93;459.57;;;14.80;99.90;;;;;;4984488;28;20454;-79
2021/08/02 03:20:14;;;;;;;446.13;430.93;;;14.80;99.90;;;;;;4995346;28;20454;-82
2021/08/02 03:22:45;;;;;;;489.30;473.30;;;14.80;99.90;;;;;;4993827;28;20453;-79
2021/08/02 03:25:19;;;;;;;522.73;505.67;;;14.70;99.90;;;;;;4995533;28;20472;-77
2021/08/02 03:34:24;;;;;;;642.63;621.47;;;14.60;99.90;;;;;;4914532;29;20492;-89
2021/08/02 03:36:53;;;;;;;623.93;603.83;;;14.70;99.90;;;;;;4929472;28;20681;-80
2021/08/02 03:39:23;;;;;;;586.40;567.10;;;14.60;99.90;;;;;;4995112;28;20520;-80
2021/08/02 03:41:51;;;;;;;646.30;625.10;;;14.70;99.90;;;;;;4994942;28;20470;-79
2021/08/02 03:44:19;;;;;;;677.27;654.87;;;14.60;99.90;;;;;;4994812;28;20454;-80
2021/08/02 03:46:48;;;;;;;658.00;636.10;;;14.60;99.90;;;;;;4993629;28;20545;-80
2021/08/02 03:49:15;;;;;;;660.00;638.47;;;14.60;99.90;;;;;;4994639;28;20868;-80
2021/08/02 03:51:47;;;;;;;657.57;635.93;;;14.60;99.90;;;;;;4994525;28;20464;-79
2021/08/02 03:54:15;;;;;;;683.60;660.33;;;14.70;99.90;;;;;;4994566;28;21101;-80
2021/08/02 03:56:44;;;;;;;635.07;614.43;;;14.70;99.90;;;;;;4994779;28;20466;-80
2021/08/02 03:59:11;;;;;;;668.83;647.17;;;14.70;99.90;;;;;;4976647;28;20446;-79
2021/08/02 04:01:44;;;;;;;569.20;550.83;;;14.70;99.90;;;;;;4985961;28;20458;-81
2021/08/02 04:04:12;;;;;;;489.63;473.53;;;14.80;99.90;;;;;;4972831;28;20462;-80
2021/08/02 04:06:39;;;;;;;476.73;461.23;;;14.80;99.90;;;;;;4974960;28;20518;-80
2021/08/02 04:09:08;;;;;;;505.63;488.67;;;14.70;99.90;;;;;;4974996;28;20503;-80
2021/08/02 04:11:36;;;;;;;318.13;306.73;;;14.80;99.90;;;;;;4974872;28;20469;-80
2021/08/02 04:14:07;;;;;;;251.60;241.83;;;14.70;98.80;;;;;;4974750;28;20522;-80
2021/08/02 04:16:35;;;;;;;266.73;256.40;;;14.70;97.60;;;;;;4973490;28;20905;-80
2021/08/02 04:19:07;;;;;;;213.07;203.77;;;14.70;97.60;;;;;;4974838;28;20466;-80
2021/08/02 04:21:41;;;;;;;241.97;232.60;;;14.80;96.80;;;;;;4974798;28;20455;-87
2021/08/02 04:47:34;;;;;;;118.67;112.43;;;14.90;93.00;;;;;;4732426;30;20279;-80
2021/08/02 04:50:01;;;;;;;64.97;60.27;;;14.90;91.10;;;;;;4797445;29;20494;-80
2021/08/02 04:52:28;;;;;;;50.77;46.47;;;14.90;89.80;;;;;;4852879;29;20552;-79
2021/08/02 04:54:56;;;;;;;47.50;43.03;;;15.00;89.10;;;;;;4896810;29;20491;-81
2021/08/02 04:57:23;;;;;;;37.80;32.20;;;15.00;89.30;;;;;;4957748;28;20456;-80
2021/08/02 04:59:50;;;;;;;42.80;38.40;;;14.90;87.70;;;;;;4993559;28;20461;-80
2021/08/02 05:02:17;;;;;;;37.83;27.47;;;15.00;89.30;;;;;;4992258;28;20461;-80
2021/08/02 05:04:45;;;;;;;37.90;30.13;;;15.00;84.00;;;;;;4993715;28;20465;-80
2021/08/02 05:07:12;;;;;;;34.00;28.07;;;15.00;85.30;;;;;;4993460;28;20481;-82
2021/08/02 05:09:39;;;;;;;39.40;35.57;;;15.00;84.70;;;;;;4993628;28;20454;-80
2021/08/02 05:12:06;;;;;;;37.50;25.80;;;15.20;86.20;;;;;;4993480;28;21052;-80
2021/08/02 05:14:33;;;;;;;31.70;21.90;;;15.20;81.70;;;;;;4993405;28;20584;-80
2021/08/02 05:17:00;;;;;;;27.80;14.20;;;15.40;78.40;;;;;;4992101;28;21097;-80
2021/08/02 05:19:27;;;;;;;29.00;10.60;;;15.50;74.10;;;;;;4993489;28;20469;-80
2021/08/02 05:21:55;;;;;;;32.33;9.00;;;15.60;72.60;;;;;;4993290;28;20458;-81
2021/08/02 05:24:22;;;;;;;29.40;6.53;;;15.90;69.50;;;;;;4993431;28;20516;-80
2021/08/02 05:26:49;;;;;;;31.40;8.87;;;15.80;68.40;;;;;;4993349;28;20489;-80
2021/08/02 05:29:16;;;;;;;28.87;9.77;;;15.90;70.10;;;;;;4993214;28;20558;-81
2021/08/02 05:31:43;;;;;;;34.27;8.80;;;15.80;70.70;;;;;;4983334;28;20478;-79
2021/08/02 05:34:11;;;;;;;32.50;7.23;;;15.90;70.00;;;;;;4973602;28;20522;-79
2021/08/02 05:36:38;;;;;;;28.30;6.00;;;15.80;66.70;;;;;;4974029;28;20495;-80
2021/08/02 05:39:06;;;;;;;28.93;6.20;;;15.90;65.60;;;;;;4974160;28;20485;-86
2021/08/02 05:42:18;;;;;;;27.50;5.70;;;15.90;66.40;;;;;;4973725;28;20955;-83
2021/08/02 05:44:45;;;;;;;28.23;5.80;;;15.90;64.80;;;;;;4972975;28;20522;-81
2021/08/02 05:47:14;;;;;;;28.37;6.13;;;15.90;63.10;;;;;;4977410;28;20592;-81
2021/08/02 05:49:52;;;;;;;29.60;5.57;;;16.00;63.60;;;;;;4993191;28;20785;-81
2021/08/02 05:52:21;;;;;;;27.20;5.30;;;15.90;62.20;;;;;;4993796;28;20888;-81
2021/08/02 05:54:56;;;;;;;28.80;5.67;;;15.90;61.10;;;;;;4996764;28;20493;-82
2021/08/02 05:57:28;;;;;;;29.30;5.03;;;15.90;60.50;;;;;;4993336;28;20454;-81
2021/08/02 05:59:59;;;;;;;26.53;4.73;;;16.00;60.00;;;;;;4977173;28;20462;-82
2021/08/02 06:02:29;;;;;;;27.30;5.10;;;16.20;60.90;;;;;;4975944;28;20477;-82
2021/08/02 06:04:59;;;;;;;29.70;3.97;;;16.00;59.60;;;;;;4976314;28;20459;-90
2021/08/02 06:07:29;;;;;;;28.13;5.13;;;16.20;59.30;;;;;;4978010;28;20466;-92
2021/08/02 06:10:21;;;;;;;28.27;5.00;;;16.00;58.10;;;;;;4977223;28;20477;-88
2021/08/02 06:12:50;;;;;;;27.00;4.60;;;16.10;58.20;;;;;;4977039;28;20446;-87
2021/08/02 06:15:24;;;;;;;28.07;3.73;;;16.10;55.70;;;;;;4976690;28;21056;-90
2021/08/02 06:21:07;;;;;;;31.90;4.47;;;16.10;55.00;;;;;;4897716;29;20585;-86
2021/08/02 06:23:34;;;;;;;26.07;3.83;;;16.30;55.20;;;;;;4946552;28;20469;-85
2021/08/02 06:26:37;;;;;;;29.60;4.20;;;16.30;55.00;;;;;;4977475;28;20457;-90
2021/08/02 06:39:23;;;;;;;31.40;3.87;;;16.70;52.80;;;;;;4878700;29;21137;-92
2021/08/02 06:42:23;;;;;;;35.07;3.80;;;16.60;49.90;;;;;;4878701;29;20550;-92
2021/08/02 06:45:07;;;;;;;25.53;3.70;;;16.50;50.00;;;;;;4879514;29;20459;-86
2021/08/02 06:47:40;;;;;;;31.57;4.27;;;16.30;49.80;;;;;;4891890;29;20886;-86
2021/08/02 06:50:08;;;;;;;27.50;4.00;;;16.30;49.80;;;;;;4897653;29;20495;-82
2021/08/02 06:52:59;;;;;;;;;;;;;;;;;;;;;
2021/08/02 06:56:25;;;;;;;;;;;;;;;;;;;;;
2021/08/02 06:59:03;;;;;;;26.97;3.53;;;16.50;50.00;;;;;;4883819;29;20461;-82
2021/08/02 07:04:39;;;;;;;34.60;3.87;;;16.70;49.00;;;;;;4988631;28;20465;-80
2021/08/02 07:07:34;;;;;;;27.30;3.37;;;16.80;47.30;;;;;;4995426;28;20465;-85
2021/08/02 07:10:21;;;;;;;30.20;3.50;;;16.70;46.40;;;;;;4995597;28;20449;-83
2021/08/02 07:19:35;;;;;;;;;;;;;;;;;;;;;
2021/08/02 07:22:06;;;;;;;29.30;4.70;;;16.90;44.50;;;;;;4952418;28;20455;-84
2021/08/02 07:35:39;;;;;;;25.87;3.03;;;17.10;36.30;;;;;;4906239;28;20595;-85
2021/08/02 07:38:22;;;;;;;36.03;4.32;;;17.30;36.60;;;;;;4994163;28;20456;-86
2021/08/02 07:40:49;;;;;;;31.60;3.43;;;17.30;34.80;;;;;;4994684;28;20197;-79
2021/08/02 07:44:00;;;;;;;23.00;2.40;;;17.50;33.30;;;;;;4994909;28;20500;-89
2021/08/02 07:50:20;;;;;;;;;;;;;;;;;;;;;
2021/08/02 07:53:19;;;;;;;30.00;2.77;;;17.40;31.50;;;;;;4920304;28;21025;-87
2021/08/02 07:56:24;;;;;;;26.47;2.53;;;17.60;33.00;;;;;;4934217;29;20604;-85
2021/08/02 07:58:52;;;;;;;25.23;2.90;;;17.70;32.00;;;;;;4993492;28;20458;-79
2021/08/02 08:01:19;;;;;;;27.13;2.77;;;17.40;30.30;;;;;;4993403;28;20464;-78
2021/08/02 08:03:45;;;;;;;27.60;2.60;;;17.30;31.50;;;;;;4994391;28;20454;-81
2021/08/02 08:06:12;;;;;;;25.70;3.00;;;17.30;31.40;;;;;;4994543;28;20450;-81
2021/08/02 08:08:40;;;;;;;28.17;2.80;;;17.30;30.40;;;;;;4993062;28;20442;-81
2021/08/02 08:11:10;;;;;;;24.80;2.87;;;17.20;30.60;;;;;;4994428;28;20545;-81
2021/08/02 08:17:38;;;;;;;25.83;2.77;;;17.10;29.90;;;;;;4929642;28;20468;-85
2021/08/02 08:20:17;;;;;;;22.43;2.67;;;17.00;29.80;;;;;;4953051;28;20508;-87
2021/08/02 08:22:49;;;;;;;26.63;2.73;;;17.00;31.80;;;;;;4994108;28;20545;-79
2021/08/02 08:25:27;;;;;;;24.23;2.87;;;16.80;30.80;;;;;;4994060;28;20509;-84
2021/08/02 08:31:33;;;;;;;25.27;2.70;;;16.80;34.00;;;;;;4993683;28;20458;-86
2021/08/02 08:34:00;;;;;;;21.23;2.53;;;16.90;34.00;;;;;;4990583;28;20460;-80
2021/08/02 08:37:05;;;;;;;;;;;;;;;;;;;;;
2021/08/02 08:42:42;;;;;;;20.87;3.03;;;17.20;32.70;;;;;;4957284;28;20464;-82
2021/08/02 08:45:51;;;;;;;23.07;2.70;;;17.60;29.90;;;;;;4993691;28;20461;-86
2021/08/02 08:49:03;;;;;;;32.73;2.80;;;17.80;30.20;;;;;;4993541;28;20822;-86
2021/08/02 08:52:00;;;;;;;36.50;4.10;;;17.90;30.70;;;;;;4993682;28;20477;-86
2021/08/02 08:54:45;;;;;;;32.77;3.00;;;17.90;29.60;;;;;;4989491;28;20569;-84
2021/08/02 08:58:09;;;;;;;28.97;3.00;;;17.80;28.00;;;;;;4993583;28;20446;-85
2021/08/02 09:01:08;;;;;;;30.00;2.90;;;17.90;27.90;;;;;;4988337;28;20825;-87
2021/08/02 09:04:18;;;;;;;30.73;2.90;;;17.90;25.50;;;;;;4993851;28;20472;-86
2021/08/02 09:07:25;;;;;;;;;;;;;;;;;;;;;
2021/08/02 09:10:22;;;;;;;;;;;;;;;;;;;;;
2021/08/02 09:13:18;;;;;;;29.00;2.17;;;18.40;19.60;;;;;;4986582;28;20445;-86
2021/08/02 11:48:46;;;;;;;34.47;3.90;;;21.70;11.50;;;;;;6197501;22;20507;-80
2021/08/02 15:10:48;;;;;;;34.47;3.50;;;22.60;2.20;;;;;;6191897;22;20927;-84
2021/08/02 15:13:26;;;;;;;;;;;;;;;;;;;;;
2021/08/02 16:41:26;;;;;;;21.30;2.43;;;17.50;19.50;;;;;;5835888;24;20425;-79
2021/08/02 19:31:54;;;;;;;24.90;4.20;;;15.30;40.00;;;;;;6215242;22;20820;-85
